Time;durP1;ratioP1;P1;durP2;ratioP2;P2;SDS_P1;SDS_P2;PMS_P1;PMS_P2;Temp;Humidity;BMP_temperature;BMP_pressure;BME280_temperature;BME280_humidity;BME280_pressure;Samples;Min_cycle;Max_cycle;Signal;HPM_P1;HPM_P2
2021/12/04 00:00:09;;;;;;;8.18;2.30;;;;;;;;;;4860935;28;20052;-81
2021/12/04 00:02:39;;;;;;;8.10;2.40;;;;;;;;;;4899775;28;21459;-81
2021/12/04 00:05:08;;;;;;;10.02;2.72;;;;;;;;;;4896468;28;20898;-79
2021/12/04 00:07:38;;;;;;;9.40;2.60;;;;;;;;;;4890600;28;20122;-78
2021/12/04 00:10:18;;;;;;;9.13;3.10;;;;;;;;;;4890630;28;20121;-79
2021/12/04 00:15:41;;;;;;;9.63;2.38;;;;;;;;;;4872151;28;20405;-81
2021/12/04 00:18:08;;;;;;;10.60;3.15;;;;;;;;;;4865260;28;22093;-79
2021/12/04 00:20:38;;;;;;;10.82;3.30;;;;;;;;;;4871267;28;21191;-79
2021/12/04 00:23:05;;;;;;;10.05;3.33;;;;;;;;;;4870767;28;20122;-81
2021/12/04 00:25:32;;;;;;;8.85;3.05;;;;;;;;;;4845648;28;20047;-79
2021/12/04 00:27:58;;;;;;;8.38;2.92;;;;;;;;;;4863377;28;20105;-82
2021/12/04 00:30:26;;;;;;;11.02;3.50;;;;;;;;;;4883022;28;20077;-81
2021/12/04 00:32:59;;;;;;;9.20;2.88;;;;;;;;;;4883579;28;21718;-78
2021/12/04 00:49:05;;;;;;;13.98;3.50;;;;;;;;;;4882963;28;20047;-79
2021/12/04 00:49:12;;;;;;;12.05;3.80;;;;;;;;;;4881644;28;20050;-80
2021/12/04 00:51:42;;;;;;;10.27;2.80;;;;;;;;;;4864976;28;20588;-80
2021/12/04 00:54:12;;;;;;;11.13;2.90;;;;;;;;;;4880007;28;20032;-79
2021/12/04 00:56:39;;;;;;;9.07;2.33;;;;;;;;;;4879888;28;20639;-81
2021/12/04 00:59:06;;;;;;;8.52;2.72;;;;;;;;;;4865462;28;21485;-81
2021/12/04 01:01:32;;;;;;;;;;;;;;;;;;4864179;28;20041;-79
2021/12/04 01:03:58;;;;;;;8.52;2.63;;;;;;;;;;4860752;28;19920;-79
2021/12/04 01:06:25;;;;;;;8.65;2.28;;;;;;;;;;4881620;28;20099;-79
2021/12/04 01:08:51;;;;;;;8.10;2.30;;;;;;;;;;4867491;28;20028;-79
2021/12/04 01:11:17;;;;;;;;;;;;;;;;;;4883942;28;20028;-80
2021/12/04 01:13:43;;;;;;;7.53;1.73;;;;;;;;;;4882144;28;19922;-79
2021/12/04 01:16:11;;;;;;;4.80;1.58;;;;;;;;;;4859980;28;20159;-80
2021/12/04 01:18:38;;;;;;;7.70;2.30;;;;;;;;;;4860872;28;20749;-79
2021/12/04 01:21:04;;;;;;;5.80;1.73;;;;;;;;;;4860149;28;22619;-79
2021/12/04 01:23:30;;;;;;;;;;;;;;;;;;4866412;28;20118;-79
2021/12/04 01:25:57;;;;;;;8.90;2.50;;;;;;;;;;4887260;28;19968;-79
2021/12/04 01:28:23;;;;;;;8.70;1.92;;;;;;;;;;4864236;28;20761;-80
2021/12/04 01:30:49;;;;;;;7.95;1.70;;;;;;;;;;4861896;28;20055;-81
2021/12/04 01:33:15;;;;;;;8.00;1.65;;;;;;;;;;4858031;28;20071;-79
2021/12/04 01:35:42;;;;;;;7.95;2.38;;;;;;;;;;4861737;28;20036;-78
2021/12/04 01:38:09;;;;;;;7.78;1.70;;;;;;;;;;4861134;28;21614;-78
2021/12/04 01:40:35;;;;;;;6.72;1.65;;;;;;;;;;4879368;28;20778;-79
2021/12/04 01:43:02;;;;;;;8.68;2.20;;;;;;;;;;4862935;28;20207;-79
2021/12/04 01:45:28;;;;;;;7.22;1.73;;;;;;;;;;4859762;28;20039;-79
2021/12/04 01:47:58;;;;;;;5.75;1.40;;;;;;;;;;4882016;28;20855;-79
2021/12/04 01:50:26;;;;;;;8.15;2.05;;;;;;;;;;4863354;28;20027;-79
2021/12/04 01:52:55;;;;;;;10.07;2.55;;;;;;;;;;4864359;28;20170;-79
2021/12/04 01:55:24;;;;;;;6.32;2.05;;;;;;;;;;4862275;28;21263;-79
2021/12/04 01:57:50;;;;;;;9.77;2.67;;;;;;;;;;4862785;28;20096;-79
2021/12/04 02:00:16;;;;;;;9.50;2.97;;;;;;;;;;4865955;28;20047;-81
2021/12/04 02:02:42;;;;;;;5.53;1.67;;;;;;;;;;4866079;28;20109;-79
2021/12/04 02:05:09;;;;;;;5.15;1.33;;;;;;;;;;4968647;28;20834;-79
2021/12/04 02:07:35;;;;;;;9.95;1.58;;;;;;;;;;4879602;28;20043;-79
2021/12/04 02:10:04;;;;;;;6.32;1.73;;;;;;;;;;4869331;28;20060;-79
2021/12/04 02:12:30;;;;;;;5.82;1.63;;;;;;;;;;4889895;28;21212;-78
2021/12/04 02:14:56;;;;;;;6.55;1.60;;;;;;;;;;4884070;28;20040;-79
2021/12/04 02:17:23;;;;;;;9.93;1.80;;;;;;;;;;4923267;28;20050;-81
2021/12/04 02:19:49;;;;;;;8.55;1.73;;;;;;;;;;4867076;28;20822;-79
2021/12/04 02:22:16;;;;;;;13.60;3.90;;;;;;;;;;4866379;28;20035;-79
2021/12/04 02:24:42;;;;;;;9.95;3.65;;;;;;;;;;4861964;28;20067;-81
2021/12/04 02:27:10;;;;;;;12.68;2.60;;;;;;;;;;4884681;28;20032;-79
2021/12/04 02:29:42;;;;;;;8.40;2.58;;;;;;;;;;4865519;28;20793;-80
2021/12/04 02:32:09;;;;;;;8.88;2.10;;;;;;;;;;4874828;28;20054;-80
2021/12/04 02:34:35;;;;;;;11.68;2.35;;;;;;;;;;4898369;28;20195;-80
2021/12/04 02:37:01;;;;;;;9.55;1.70;;;;;;;;;;4870738;28;20086;-80
2021/12/04 02:39:31;;;;;;;7.72;2.70;;;;;;;;;;4895408;28;20028;-80
2021/12/04 02:41:58;;;;;;;9.07;2.22;;;;;;;;;;4874348;28;20059;-79
2021/12/04 02:44:31;;;;;;;8.55;2.25;;;;;;;;;;4871909;28;20032;-80
2021/12/04 02:46:58;;;;;;;8.30;2.45;;;;;;;;;;4887346;28;20335;-78
2021/12/04 02:49:24;;;;;;;7.38;1.95;;;;;;;;;;4889944;28;20320;-80
2021/12/04 02:51:50;;;;;;;7.13;1.60;;;;;;;;;;4888729;28;20048;-79
2021/12/04 02:54:17;;;;;;;10.70;2.38;;;;;;;;;;4869914;28;20041;-80
2021/12/04 02:56:44;;;;;;;8.90;2.42;;;;;;;;;;4868325;28;20044;-80
2021/12/04 02:59:11;;;;;;;8.35;2.67;;;;;;;;;;4888141;28;20038;-79
2021/12/04 03:01:39;;;;;;;9.20;2.33;;;;;;;;;;4870825;28;21507;-79
2021/12/04 03:04:06;;;;;;;8.90;2.08;;;;;;;;;;4891127;28;20035;-80
2021/12/04 03:06:37;;;;;;;5.25;1.55;;;;;;;;;;4872455;28;20047;-80
2021/12/04 03:09:04;;;;;;;9.07;1.50;;;;;;;;;;4873241;28;20086;-79
2021/12/04 03:11:30;;;;;;;8.13;1.98;;;;;;;;;;4891746;28;20214;-79
2021/12/04 03:13:57;;;;;;;6.43;1.33;;;;;;;;;;4873959;28;20031;-80
2021/12/04 03:16:24;;;;;;;6.60;1.55;;;;;;;;;;4870908;28;20036;-79
2021/12/04 03:18:50;;;;;;;7.78;1.63;;;;;;;;;;4873844;28;20029;-81
2021/12/04 03:21:17;;;;;;;7.15;1.60;;;;;;;;;;4873572;28;21368;-80
2021/12/04 03:24:02;;;;;;;8.38;1.80;;;;;;;;;;4868553;28;20097;-81
2021/12/04 03:26:28;;;;;;;8.85;2.25;;;;;;;;;;4873208;28;20073;-80
2021/12/04 03:28:56;;;;;;;6.90;1.40;;;;;;;;;;4891304;28;21152;-79
2021/12/04 03:42:14;;;;;;;9.07;2.67;;;;;;;;;;4888074;28;20043;-79
2021/12/04 03:44:41;;;;;;;9.10;2.53;;;;;;;;;;4893156;28;20037;-81
2021/12/04 03:47:09;;;;;;;8.93;3.45;;;;;;;;;;4898787;28;20024;-79
2021/12/04 03:49:35;;;;;;;9.00;1.98;;;;;;;;;;4877303;28;21030;-81
2021/12/04 03:52:01;;;;;;;9.25;2.40;;;;;;;;;;4898514;28;20051;-80
2021/12/04 03:54:29;;;;;;;9.38;2.38;;;;;;;;;;4878671;28;20033;-79
2021/12/04 03:57:03;;;;;;;7.20;1.77;;;;;;;;;;4899623;28;21460;-79
2021/12/04 03:59:29;;;;;;;7.82;1.52;;;;;;;;;;4880597;28;20027;-81
2021/12/04 04:01:55;;;;;;;10.65;1.40;;;;;;;;;;4897843;28;20027;-79
2021/12/04 04:04:22;;;;;;;6.65;1.30;;;;;;;;;;4897205;28;20588;-81
2021/12/04 04:06:48;;;;;;;7.45;1.27;;;;;;;;;;4877793;28;20690;-81
2021/12/04 04:09:14;;;;;;;6.43;1.27;;;;;;;;;;4895028;28;20170;-79
2021/12/04 04:11:41;;;;;;;6.32;1.52;;;;;;;;;;4876609;28;20823;-79
2021/12/04 04:14:08;;;;;;;6.25;1.20;;;;;;;;;;4879375;28;22975;-81
2021/12/04 04:16:39;;;;;;;6.47;1.33;;;;;;;;;;4876870;28;20051;-80
2021/12/04 04:19:05;;;;;;;10.05;1.98;;;;;;;;;;4876483;28;20051;-79
2021/12/04 04:21:31;;;;;;;7.90;2.03;;;;;;;;;;4878375;28;22211;-79
2021/12/04 04:23:57;;;;;;;6.05;1.48;;;;;;;;;;4893411;28;20040;-81
2021/12/04 04:26:24;;;;;;;7.95;1.63;;;;;;;;;;4874128;28;20281;-81
2021/12/04 04:28:50;;;;;;;5.90;1.30;;;;;;;;;;4876136;28;20047;-79
2021/12/04 04:31:16;;;;;;;7.60;2.47;;;;;;;;;;4877170;28;20214;-79
2021/12/04 04:33:44;;;;;;;6.30;1.45;;;;;;;;;;4875210;28;21517;-81
2021/12/04 05:14:34;;;;;;;7.75;1.30;;;;;;;;;;4804571;28;20632;-79
2021/12/04 05:17:07;;;;;;;7.40;1.50;;;;;;;;;;4802902;28;23069;-80
2021/12/04 05:19:40;;;;;;;10.50;2.10;;;;;;;;;;4880863;28;20040;-79
2021/12/04 05:22:06;;;;;;;5.40;1.50;;;;;;;;;;4872666;28;20040;-79
2021/12/04 05:24:33;;;;;;;7.90;1.77;;;;;;;;;;4893495;28;20039;-79
2021/12/04 05:26:59;;;;;;;8.20;1.60;;;;;;;;;;4876152;28;20036;-79
2021/12/04 05:29:25;;;;;;;6.85;1.40;;;;;;;;;;4889916;28;20044;-79
2021/12/04 05:31:52;;;;;;;6.82;1.40;;;;;;;;;;4874788;28;20075;-79
2021/12/04 05:34:18;;;;;;;7.40;1.55;;;;;;;;;;4878679;28;20108;-78
2021/12/04 05:36:45;;;;;;;9.50;2.20;;;;;;;;;;4873890;28;21825;-79
2021/12/04 05:39:11;;;;;;;7.53;1.83;;;;;;;;;;4892054;28;21688;-78
2021/12/04 05:41:37;;;;;;;8.27;1.77;;;;;;;;;;4897134;28;21608;-78
2021/12/04 05:44:09;;;;;;;7.82;1.60;;;;;;;;;;4877128;28;20078;-79
2021/12/04 05:46:40;;;;;;;10.90;2.30;;;;;;;;;;4879770;28;22433;-78
2021/12/04 05:49:21;;;;;;;9.95;1.83;;;;;;;;;;4879323;28;20036;-79
2021/12/04 05:52:33;;;;;;;9.40;2.15;;;;;;;;;;4884790;28;20101;-79
2021/12/04 05:57:06;;;;;;;6.30;1.50;;;;;;;;;;4897172;28;20040;-80
2021/12/04 05:59:32;;;;;;;6.20;1.50;;;;;;;;;;4876107;28;20632;-79
2021/12/04 06:01:58;;;;;;;6.72;1.45;;;;;;;;;;4897297;28;20038;-79
2021/12/04 06:04:25;;;;;;;5.82;1.65;;;;;;;;;;4899413;28;20591;-79
2021/12/04 06:06:51;;;;;;;5.63;1.10;;;;;;;;;;4896522;28;20063;-79
2021/12/04 06:09:17;;;;;;;4.43;1.38;;;;;;;;;;4873663;28;20794;-79
2021/12/04 06:11:44;;;;;;;7.40;1.50;;;;;;;;;;4874955;28;20155;-79
2021/12/04 06:14:10;;;;;;;10.02;1.67;;;;;;;;;;4893890;28;20074;-79
2021/12/04 06:16:37;;;;;;;10.20;2.00;;;;;;;;;;4897720;28;20040;-78
2021/12/04 06:19:12;;;;;;;;;;;;;;;;;;4877563;28;20032;-79
2021/12/04 06:24:24;;;;;;;11.75;2.58;;;;;;;;;;4900410;28;20917;-79
2021/12/04 06:26:50;;;;;;;;;;;;;;;;;;4872581;28;21888;-79
2021/12/04 06:29:16;;;;;;;10.18;2.85;;;;;;;;;;4880983;28;20641;-79
2021/12/04 06:31:42;;;;;;;11.10;4.03;;;;;;;;;;4896905;28;20751;-79
2021/12/04 06:34:08;;;;;;;10.07;3.45;;;;;;;;;;4893669;28;20053;-79
2021/12/04 06:36:37;;;;;;;9.02;2.03;;;;;;;;;;4876657;28;20115;-79
2021/12/04 06:39:05;;;;;;;10.82;1.98;;;;;;;;;;4881368;28;21656;-79
2021/12/04 06:41:31;;;;;;;8.13;2.30;;;;;;;;;;4897700;28;20058;-79
2021/12/04 06:43:57;;;;;;;9.13;1.90;;;;;;;;;;4898125;28;20112;-80
2021/12/04 06:46:24;;;;;;;8.48;2.08;;;;;;;;;;4892955;28;20980;-79
2021/12/04 06:49:11;;;;;;;;;;;;;;;;;;4892161;28;20214;-79
2021/12/04 06:51:41;;;;;;;7.75;1.88;;;;;;;;;;4877356;28;19969;-79
2021/12/04 06:56:35;;;;;;;;;;;;;;;;;;4897962;28;20943;-78
2021/12/04 06:59:05;;;;;;;;;;;;;;;;;;4894354;28;19950;-79
2021/12/04 07:01:32;;;;;;;11.50;3.00;;;;;;;;;;4878156;28;20459;-79
2021/12/04 07:03:58;;;;;;;8.70;2.70;;;;;;;;;;4878397;28;20036;-79
2021/12/04 07:06:24;;;;;;;10.65;3.33;;;;;;;;;;4898423;28;20087;-79
2021/12/04 07:08:50;;;;;;;10.50;3.00;;;;;;;;;;4878298;28;20036;-79
2021/12/04 07:11:17;;;;;;;7.13;2.22;;;;;;;;;;4879789;28;20057;-81
2021/12/04 07:13:43;;;;;;;8.90;2.78;;;;;;;;;;4896716;28;20020;-81
2021/12/04 07:16:12;;;;;;;11.52;2.17;;;;;;;;;;4882658;28;20687;-79
2021/12/04 07:18:39;;;;;;;12.55;2.92;;;;;;;;;;4899266;28;20076;-80
2021/12/04 07:21:05;;;;;;;9.80;2.50;;;;;;;;;;4883573;28;20076;-81
2021/12/04 07:23:32;;;;;;;9.27;2.15;;;;;;;;;;4897559;28;20020;-81
2021/12/04 07:25:58;;;;;;;10.23;2.05;;;;;;;;;;4883344;28;20150;-80
2021/12/04 07:28:25;;;;;;;5.47;1.70;;;;;;;;;;4881724;28;20133;-81
2021/12/04 07:30:52;;;;;;;8.80;1.85;;;;;;;;;;4901780;28;20040;-82
2021/12/04 07:33:18;;;;;;;;;;;;;;;;;;4899776;28;20867;-80
2021/12/04 07:35:44;;;;;;;8.60;1.52;;;;;;;;;;4879510;28;20646;-81
2021/12/04 07:38:10;;;;;;;7.97;1.48;;;;;;;;;;4880531;28;20065;-82
2021/12/04 07:40:36;;;;;;;;;;;;;;;;;;4878046;28;21851;-79
2021/12/04 07:43:03;;;;;;;9.38;1.70;;;;;;;;;;4882711;28;23318;-81
2021/12/04 07:45:29;;;;;;;6.97;1.48;;;;;;;;;;4882331;28;20129;-81
2021/12/04 07:47:55;;;;;;;11.57;1.67;;;;;;;;;;4879767;28;20075;-79
2021/12/04 07:50:21;;;;;;;;;;;;;;;;;;4874306;28;20055;-79
2021/12/04 07:52:49;;;;;;;5.88;1.65;;;;;;;;;;4894629;28;19920;-82
2021/12/04 07:55:16;;;;;;;10.88;2.20;;;;;;;;;;4876041;28;20116;-82
2021/12/04 07:57:42;;;;;;;9.02;2.70;;;;;;;;;;4876789;28;20783;-81
2021/12/04 08:00:10;;;;;;;11.02;3.10;;;;;;;;;;4874711;28;20033;-81
2021/12/04 08:02:37;;;;;;;11.25;3.47;;;;;;;;;;4895809;28;22193;-80
2021/12/04 08:05:04;;;;;;;10.45;3.42;;;;;;;;;;4876563;28;20119;-79
2021/12/04 08:07:30;;;;;;;;;;;;;;;;;;4877651;28;21063;-80
2021/12/04 08:09:56;;;;;;;14.93;3.63;;;;;;;;;;4874866;28;19927;-79
2021/12/04 08:12:22;;;;;;;12.90;4.60;;;;;;;;;;4896196;28;20696;-82
2021/12/04 08:14:49;;;;;;;12.18;4.30;;;;;;;;;;4876296;28;20117;-80
2021/12/04 08:17:15;;;;;;;12.50;4.10;;;;;;;;;;4875915;28;20052;-79
2021/12/04 08:19:41;;;;;;;13.27;4.13;;;;;;;;;;4890355;28;20040;-81
2021/12/04 08:22:07;;;;;;;11.63;3.83;;;;;;;;;;4887676;28;20755;-81
2021/12/04 08:24:34;;;;;;;12.90;3.63;;;;;;;;;;4888040;28;20029;-80
2021/12/04 08:27:01;;;;;;;11.25;4.05;;;;;;;;;;4891672;28;20043;-79
2021/12/04 08:29:27;;;;;;;12.98;4.38;;;;;;;;;;4874399;28;21540;-80
2021/12/04 08:31:54;;;;;;;8.63;3.30;;;;;;;;;;4875971;28;20063;-79
2021/12/04 08:34:20;;;;;;;12.68;4.25;;;;;;;;;;4872049;28;20029;-82
2021/12/04 08:36:46;;;;;;;10.57;3.72;;;;;;;;;;4877775;28;20679;-82
2021/12/04 08:39:13;;;;;;;13.50;3.83;;;;;;;;;;4875508;28;20067;-80
2021/12/04 08:41:40;;;;;;;11.38;3.15;;;;;;;;;;4874934;28;20070;-80
2021/12/04 08:44:07;;;;;;;11.20;2.88;;;;;;;;;;4876596;28;20749;-80
2021/12/04 08:46:35;;;;;;;11.38;2.50;;;;;;;;;;4877464;28;20071;-79
2021/12/04 08:49:01;;;;;;;9.80;2.22;;;;;;;;;;4873385;28;21632;-81
2021/12/04 08:51:29;;;;;;;8.45;1.92;;;;;;;;;;4876899;28;20028;-80
2021/12/04 08:53:55;;;;;;;9.55;2.53;;;;;;;;;;4875496;28;20068;-79
2021/12/04 08:56:21;;;;;;;11.50;2.70;;;;;;;;;;4869472;28;20123;-80
2021/12/04 08:58:47;;;;;;;;;;;;;;;;;;4879036;28;20123;-79
2021/12/04 09:01:21;;;;;;;10.13;2.75;;;;;;;;;;4874362;28;19924;-81
2021/12/04 09:03:48;;;;;;;12.15;3.13;;;;;;;;;;4877431;28;21450;-79
2021/12/04 09:06:14;;;;;;;12.02;2.83;;;;;;;;;;4871415;28;21074;-80
2021/12/04 09:08:41;;;;;;;11.68;2.85;;;;;;;;;;4868885;28;20941;-81
2021/12/04 09:11:12;;;;;;;12.88;3.03;;;;;;;;;;4866614;28;20221;-80
2021/12/04 09:13:39;;;;;;;10.48;2.60;;;;;;;;;;4862984;28;20172;-81
2021/12/04 09:16:06;;;;;;;8.50;2.35;;;;;;;;;;4859007;28;20089;-79
2021/12/04 09:18:34;;;;;;;8.98;2.60;;;;;;;;;;4863429;28;22051;-81
2021/12/04 09:21:01;;;;;;;9.07;2.35;;;;;;;;;;4870711;28;20068;-81
2021/12/04 09:23:35;;;;;;;10.23;2.15;;;;;;;;;;4868052;28;20183;-82
2021/12/04 09:26:03;;;;;;;11.73;2.25;;;;;;;;;;4876077;28;20029;-81
2021/12/04 10:01:13;;;;;;;10.05;1.92;;;;;;;;;;4881013;28;20081;-80
2021/12/04 10:11:08;;;;;;;7.13;1.60;;;;;;;;;;4877815;28;20682;-81
2021/12/04 10:33:57;;;;;;;4.93;1.27;;;;;;;;;;4882048;28;21642;-79
2021/12/04 10:36:34;;;;;;;5.97;1.20;;;;;;;;;;4882754;28;20036;-82
2021/12/04 10:39:01;;;;;;;9.30;1.70;;;;;;;;;;4876307;28;20081;-79
2021/12/04 10:41:32;;;;;;;8.55;1.60;;;;;;;;;;4859097;28;20050;-80
2021/12/04 10:44:16;;;;;;;9.60;2.17;;;;;;;;;;4862258;28;20081;-81
2021/12/04 10:47:05;;;;;;;9.98;3.13;;;;;;;;;;4861965;28;21546;-81
2021/12/04 10:55:25;;;;;;;8.07;1.63;;;;;;;;;;4881081;28;20035;-80
2021/12/04 11:00:50;;;;;;;10.52;1.70;;;;;;;;;;4879551;28;20036;-81
2021/12/04 11:03:43;;;;;;;8.32;1.77;;;;;;;;;;4858841;28;20040;-78
2021/12/04 11:25:17;;;;;;;9.20;1.73;;;;;;;;;;4829726;28;21682;-80
2021/12/04 11:28:01;;;;;;;8.45;1.40;;;;;;;;;;4854560;28;20032;-80
2021/12/04 11:38:52;;;;;;;9.07;1.88;;;;;;;;;;4878294;28;20051;-80
2021/12/04 11:43:58;;;;;;;9.48;2.50;;;;;;;;;;4879514;28;19912;-81
2021/12/04 11:46:45;;;;;;;9.23;2.10;;;;;;;;;;4858580;28;21838;-82
2021/12/04 11:49:26;;;;;;;9.18;1.70;;;;;;;;;;4877972;28;20028;-80
2021/12/04 11:52:07;;;;;;;8.07;2.20;;;;;;;;;;4863530;28;20048;-80
2021/12/04 11:54:45;;;;;;;8.32;1.98;;;;;;;;;;4880998;28;21725;-80
2021/12/04 11:57:12;;;;;;;7.90;1.70;;;;;;;;;;4860231;28;20028;-81
2021/12/04 11:59:40;;;;;;;7.57;1.90;;;;;;;;;;4859085;28;20036;-82
2021/12/04 12:02:08;;;;;;;8.18;1.85;;;;;;;;;;4860919;28;21472;-80
2021/12/04 12:04:37;;;;;;;8.40;1.80;;;;;;;;;;4859011;28;20086;-80
2021/12/04 12:07:33;;;;;;;9.75;2.25;;;;;;;;;;4883049;28;20052;-80
2021/12/04 12:10:08;;;;;;;8.60;2.55;;;;;;;;;;4808859;28;20038;-79
2021/12/04 12:12:36;;;;;;;7.25;1.90;;;;;;;;;;4804705;28;20069;-83
2021/12/04 12:15:07;;;;;;;8.63;2.20;;;;;;;;;;4804264;28;20092;-80
2021/12/04 12:17:36;;;;;;;6.75;1.55;;;;;;;;;;4792009;28;21005;-80
2021/12/04 12:20:05;;;;;;;6.57;1.80;;;;;;;;;;4806166;28;20934;-81
2021/12/04 12:22:39;;;;;;;6.40;1.50;;;;;;;;;;4806479;28;20037;-82
2021/12/04 12:25:34;;;;;;;6.63;1.50;;;;;;;;;;4808880;28;20140;-82
2021/12/04 12:36:23;;;;;;;11.57;1.60;;;;;;;;;;4816491;28;20042;-81
2021/12/04 12:38:53;;;;;;;7.40;1.80;;;;;;;;;;4816037;28;20951;-82
2021/12/04 12:41:37;;;;;;;7.88;1.55;;;;;;;;;;4802487;28;20128;-82
2021/12/04 12:44:03;;;;;;;9.93;2.10;;;;;;;;;;4813816;28;20428;-79
2021/12/04 12:46:39;;;;;;;11.65;2.20;;;;;;;;;;4852277;28;20104;-80
2021/12/04 12:49:16;;;;;;;8.20;1.70;;;;;;;;;;4867771;28;20158;-81
2021/12/04 12:51:44;;;;;;;8.57;1.63;;;;;;;;;;4861329;28;20035;-82
2021/12/04 12:54:10;;;;;;;8.85;1.65;;;;;;;;;;4885021;28;20119;-80
2021/12/04 12:56:37;;;;;;;7.22;1.52;;;;;;;;;;4863270;28;20036;-80
2021/12/04 12:59:09;;;;;;;9.73;1.75;;;;;;;;;;4865594;28;20031;-82
2021/12/04 13:12:52;;;;;;;9.32;2.30;;;;;;;;;;4894607;28;20043;-83
2021/12/04 13:15:31;;;;;;;10.95;2.58;;;;;;;;;;4896408;28;20156;-80
2021/12/04 13:17:57;;;;;;;8.85;2.38;;;;;;;;;;4900473;28;20068;-82
2021/12/04 13:20:23;;;;;;;7.13;1.60;;;;;;;;;;4870371;28;21349;-82
2021/12/04 13:22:50;;;;;;;8.30;1.90;;;;;;;;;;4883051;28;20153;-81
2021/12/04 13:25:16;;;;;;;8.82;2.40;;;;;;;;;;4884810;28;22765;-82
2021/12/04 13:30:11;;;;;;;11.30;2.00;;;;;;;;;;4882950;28;20074;-80
2021/12/04 13:32:40;;;;;;;11.15;3.25;;;;;;;;;;4862121;28;20812;-81
2021/12/04 13:35:13;;;;;;;10.70;2.30;;;;;;;;;;4882447;28;20374;-81
2021/12/04 13:37:40;;;;;;;7.18;1.70;;;;;;;;;;4863243;28;20039;-80
2021/12/04 13:40:09;;;;;;;8.98;1.88;;;;;;;;;;4884764;28;21199;-82
2021/12/04 13:42:36;;;;;;;8.45;1.80;;;;;;;;;;4864868;28;20036;-82
2021/12/04 13:45:04;;;;;;;9.43;2.22;;;;;;;;;;4885902;28;20032;-84
2021/12/04 13:47:30;;;;;;;8.55;2.10;;;;;;;;;;4883417;28;20073;-81
2021/12/04 13:49:57;;;;;;;9.05;1.88;;;;;;;;;;4882930;28;20077;-80
2021/12/04 13:52:25;;;;;;;13.27;3.10;;;;;;;;;;4867437;28;20538;-81
2021/12/04 13:54:54;;;;;;;8.07;2.13;;;;;;;;;;4867127;28;20028;-81
2021/12/04 13:57:20;;;;;;;8.50;2.17;;;;;;;;;;4869165;28;22363;-80
2021/12/04 13:59:46;;;;;;;10.80;2.72;;;;;;;;;;4869505;28;20035;-81
2021/12/04 14:02:23;;;;;;;10.85;2.88;;;;;;;;;;4890576;28;20039;-81
2021/12/04 14:04:57;;;;;;;13.27;2.85;;;;;;;;;;4871059;28;20998;-81
2021/12/04 14:07:23;;;;;;;10.75;3.25;;;;;;;;;;4871240;28;20138;-81
2021/12/04 14:09:50;;;;;;;11.68;3.95;;;;;;;;;;4870278;28;20992;-80
2021/12/04 14:12:16;;;;;;;11.13;3.00;;;;;;;;;;4868765;28;20035;-80
2021/12/04 14:14:42;;;;;;;11.50;4.10;;;;;;;;;;4893616;28;20145;-81
2021/12/04 14:17:14;;;;;;;9.88;2.67;;;;;;;;;;4895602;28;20052;-82
2021/12/04 14:19:41;;;;;;;7.80;1.88;;;;;;;;;;4896367;28;20036;-80
2021/12/04 14:22:13;;;;;;;8.10;1.55;;;;;;;;;;4877566;28;20028;-80
2021/12/04 14:24:44;;;;;;;12.70;4.65;;;;;;;;;;4875442;28;20048;-80
2021/12/04 14:27:12;;;;;;;12.05;4.72;;;;;;;;;;4896404;28;20043;-80
2021/12/04 14:29:41;;;;;;;7.75;1.90;;;;;;;;;;4932602;28;20052;-82
2021/12/04 14:32:09;;;;;;;9.45;2.67;;;;;;;;;;4887033;28;20186;-82
2021/12/04 14:34:35;;;;;;;15.45;7.78;;;;;;;;;;4892304;28;20032;-81
2021/12/04 14:37:01;;;;;;;14.00;5.22;;;;;;;;;;4883942;28;20091;-82
2021/12/04 14:39:28;;;;;;;12.25;4.28;;;;;;;;;;4886669;28;20032;-81
2021/12/04 14:41:54;;;;;;;13.32;4.93;;;;;;;;;;4882458;28;20178;-81
2021/12/04 14:44:23;;;;;;;10.25;3.42;;;;;;;;;;4885196;28;20371;-81
2021/12/04 14:46:50;;;;;;;11.43;2.83;;;;;;;;;;4881170;28;20032;-81
2021/12/04 14:49:16;;;;;;;11.73;2.80;;;;;;;;;;4875438;28;20036;-81
2021/12/04 14:51:43;;;;;;;10.57;3.28;;;;;;;;;;4878776;28;20359;-80
2021/12/04 14:54:10;;;;;;;10.25;2.75;;;;;;;;;;4884989;28;20119;-82
2021/12/04 14:56:36;;;;;;;10.45;2.10;;;;;;;;;;4874902;28;20090;-82
2021/12/04 14:59:13;;;;;;;10.00;2.15;;;;;;;;;;4881466;28;20024;-80
2021/12/04 15:01:39;;;;;;;9.35;2.42;;;;;;;;;;4878105;28;20041;-80
2021/12/04 15:04:05;;;;;;;12.13;3.35;;;;;;;;;;4883639;28;20040;-80
2021/12/04 15:06:34;;;;;;;9.10;2.97;;;;;;;;;;4878329;28;22256;-81
2021/12/04 15:09:00;;;;;;;9.45;2.42;;;;;;;;;;4875358;28;20040;-83
2021/12/04 15:11:32;;;;;;;8.23;2.20;;;;;;;;;;4876643;28;20035;-81
2021/12/04 15:14:01;;;;;;;10.07;2.90;;;;;;;;;;4874737;28;20066;-81
2021/12/04 15:16:38;;;;;;;12.25;3.78;;;;;;;;;;4875628;28;20068;-81
2021/12/04 15:19:10;;;;;;;11.10;2.03;;;;;;;;;;4877743;28;20308;-81
2021/12/04 15:21:43;;;;;;;10.50;2.53;;;;;;;;;;4874666;28;20037;-80
2021/12/04 15:24:12;;;;;;;11.07;2.83;;;;;;;;;;4883430;28;20048;-80
2021/12/04 15:26:40;;;;;;;12.25;2.40;;;;;;;;;;4877231;28;21953;-80
2021/12/04 15:29:07;;;;;;;12.82;2.38;;;;;;;;;;4878335;28;20048;-82
2021/12/04 15:31:40;;;;;;;12.88;2.75;;;;;;;;;;4883488;28;20094;-82
2021/12/04 15:34:06;;;;;;;10.38;2.35;;;;;;;;;;4869704;28;20060;-80
2021/12/04 15:36:40;;;;;;;7.88;2.40;;;;;;;;;;4869689;28;20075;-80
2021/12/04 15:39:12;;;;;;;8.70;2.10;;;;;;;;;;4869707;28;20032;-80
2021/12/04 15:49:33;;;;;;;8.73;2.42;;;;;;;;;;4877741;28;20100;-82
2021/12/04 15:54:49;;;;;;;9.50;2.83;;;;;;;;;;4880582;28;20043;-81
2021/12/04 15:57:20;;;;;;;10.15;2.85;;;;;;;;;;4878687;28;20853;-81
2021/12/04 15:59:49;;;;;;;10.75;3.55;;;;;;;;;;4875762;28;20036;-80
2021/12/04 16:02:19;;;;;;;9.80;2.20;;;;;;;;;;4878042;28;20036;-81
2021/12/04 16:04:46;;;;;;;10.80;3.30;;;;;;;;;;4878887;28;20576;-80
2021/12/04 16:07:22;;;;;;;13.43;4.22;;;;;;;;;;4896508;28;20518;-81
2021/12/04 16:09:48;;;;;;;;;;;;;;;;;;4896866;28;20829;-80
2021/12/04 16:12:15;;;;;;;10.15;2.90;;;;;;;;;;4883999;28;20069;-83
2021/12/04 16:14:43;;;;;;;10.40;3.67;;;;;;;;;;4875357;28;20150;-80
2021/12/04 16:17:10;;;;;;;10.50;3.33;;;;;;;;;;4878657;28;20036;-81
2021/12/04 16:19:38;;;;;;;12.23;3.05;;;;;;;;;;4875323;28;20428;-82
2021/12/04 16:22:07;;;;;;;12.48;2.90;;;;;;;;;;4877658;28;20044;-81
2021/12/04 16:24:35;;;;;;;9.38;3.10;;;;;;;;;;4875848;28;20047;-80
2021/12/04 16:27:11;;;;;;;9.20;3.30;;;;;;;;;;4878825;28;21533;-80
2021/12/04 16:29:40;;;;;;;10.50;2.57;;;;;;;;;;4877047;28;20079;-82
2021/12/04 16:37:49;;;;;;;12.15;3.97;;;;;;;;;;4818748;28;21931;-80
2021/12/04 16:40:16;;;;;;;;;;;;;;;;;;4817718;28;20038;-82
2021/12/04 16:42:42;;;;;;;10.50;3.22;;;;;;;;;;4820361;28;19960;-81
2021/12/04 16:45:13;;;;;;;10.15;3.22;;;;;;;;;;4806163;28;20034;-81
2021/12/04 16:47:45;;;;;;;9.10;3.10;;;;;;;;;;4808413;28;20723;-79
2021/12/04 16:50:16;;;;;;;12.45;3.08;;;;;;;;;;4811047;28;20060;-82
2021/12/04 16:56:01;;;;;;;11.57;2.85;;;;;;;;;;4840398;28;20041;-82
2021/12/04 16:58:28;;;;;;;11.15;3.00;;;;;;;;;;4833498;28;20328;-80
2021/12/04 17:00:55;;;;;;;6.90;2.08;;;;;;;;;;4825911;28;20065;-80
2021/12/04 17:03:22;;;;;;;10.20;2.65;;;;;;;;;;4808493;28;20168;-80
2021/12/04 17:05:51;;;;;;;9.00;3.28;;;;;;;;;;4820936;28;20041;-80
2021/12/04 17:08:17;;;;;;;11.70;4.68;;;;;;;;;;4821660;28;21820;-82
2021/12/04 17:10:44;;;;;;;10.48;3.40;;;;;;;;;;4846103;28;22209;-82
2021/12/04 17:13:10;;;;;;;11.88;4.60;;;;;;;;;;4875443;28;20774;-79
2021/12/04 17:15:42;;;;;;;;;;;;;;;;;;4874198;28;20032;-82
2021/12/04 17:18:15;;;;;;;10.77;4.00;;;;;;;;;;4878569;28;20741;-81
2021/12/04 17:20:41;;;;;;;12.18;3.60;;;;;;;;;;4880545;28;20036;-80
2021/12/04 17:23:07;;;;;;;13.20;4.72;;;;;;;;;;4875700;28;20963;-80
2021/12/04 17:25:36;;;;;;;17.17;5.70;;;;;;;;;;4879756;28;20033;-82
2021/12/04 17:28:02;;;;;;;20.48;8.30;;;;;;;;;;4879493;28;20690;-81
2021/12/04 17:30:29;;;;;;;14.23;4.95;;;;;;;;;;4875464;28;20083;-80
2021/12/04 17:32:56;;;;;;;16.95;6.55;;;;;;;;;;4877814;28;20059;-81
2021/12/04 17:35:23;;;;;;;13.68;3.22;;;;;;;;;;4877706;28;21178;-80
2021/12/04 17:37:50;;;;;;;11.30;3.85;;;;;;;;;;4877711;28;20032;-81
2021/12/04 17:40:17;;;;;;;18.40;6.75;;;;;;;;;;4877581;28;20040;-80
2021/12/04 17:42:44;;;;;;;10.07;3.30;;;;;;;;;;4875767;28;20040;-81
2021/12/04 17:45:12;;;;;;;18.40;9.25;;;;;;;;;;4877248;28;20904;-80
2021/12/04 17:47:43;;;;;;;12.52;3.50;;;;;;;;;;4877163;28;20036;-80
2021/12/04 17:50:13;;;;;;;19.73;9.50;;;;;;;;;;4878794;28;20028;-83
2021/12/04 17:52:40;;;;;;;11.73;4.05;;;;;;;;;;4877212;28;20141;-80
2021/12/04 17:55:07;;;;;;;14.27;5.15;;;;;;;;;;4877478;28;20070;-80
2021/12/04 17:57:35;;;;;;;12.15;4.03;;;;;;;;;;4876502;28;20031;-80
2021/12/04 18:00:02;;;;;;;11.93;4.25;;;;;;;;;;4874789;28;20783;-80
2021/12/04 18:02:29;;;;;;;22.67;11.07;;;;;;;;;;4879037;28;20777;-81
2021/12/04 18:04:59;;;;;;;26.83;14.05;;;;;;;;;;4874473;28;20075;-82
2021/12/04 18:07:26;;;;;;;19.67;9.82;;;;;;;;;;4877170;28;20814;-80
2021/12/04 18:09:53;;;;;;;13.23;4.80;;;;;;;;;;4878361;28;21307;-81
2021/12/04 18:12:22;;;;;;;9.80;3.13;;;;;;;;;;4879118;28;20250;-81
2021/12/04 18:14:49;;;;;;;11.18;3.65;;;;;;;;;;4875790;28;20098;-83
2021/12/04 18:17:15;;;;;;;12.30;3.40;;;;;;;;;;4877770;28;20032;-81
2021/12/04 18:19:41;;;;;;;;;;;;;;;;;;4879447;28;20037;-83
2021/12/04 18:22:08;;;;;;;10.90;2.95;;;;;;;;;;4870464;28;20707;-81